Time;durP1;ratioP1;P1;durP2;ratioP2;P2;SDS_P1;SDS_P2;PMS_P1;PMS_P2;Temp;Humidity;BMP_temperature;BMP_pressure;BME280_temperature;BME280_humidity;BME280_pressure;Samples;Min_cycle;Max_cycle;Signal;HPM_P1;HPM_P2
2023/05/06 00:02:25;;;;;;;11.13;7.23;;;;;;;12.71;89.27;94999.81;5073722;28;20517;-79
2023/05/06 00:04:52;;;;;;;10.30;8.70;;;;;;;12.62;87.80;95001.47;5054937;28;20448;-79
2023/05/06 00:07:19;;;;;;;9.63;7.53;;;;;;;12.63;87.29;95002.31;5074050;28;20453;-80
2023/05/06 00:09:46;;;;;;;9.43;7.77;;;;;;;12.60;88.43;95005.22;5074107;28;20879;-80
2023/05/06 00:12:12;;;;;;;10.03;8.27;;;;;;;12.60;88.34;94987.63;5074126;28;20881;-80
2023/05/06 00:14:39;;;;;;;7.60;6.90;;;;;;;12.60;89.04;94992.88;5073165;28;20963;-80
2023/05/06 00:17:07;;;;;;;11.00;8.30;;;;;;;12.57;88.48;94992.34;5073006;28;20776;-80
2023/05/06 00:19:34;;;;;;;9.50;7.70;;;;;;;12.55;89.37;94989.84;5073493;28;20445;-79
2023/05/06 00:22:01;;;;;;;11.00;7.70;;;;;;;12.55;88.91;94981.94;5073564;28;20499;-80
2023/05/06 00:24:28;;;;;;;8.90;8.00;;;;;;;12.59;88.28;94990.41;5054533;28;20453;-80
2023/05/06 00:26:55;;;;;;;9.60;7.90;;;;;;;12.54;88.22;94988.19;5072905;28;20453;-79
2023/05/06 00:29:22;;;;;;;9.30;7.63;;;;;;;12.55;89.04;94994.28;5073065;28;20452;-80
2023/05/06 00:31:49;;;;;;;9.33;7.67;;;;;;;12.48;89.80;94988.75;5072215;28;20480;-80
2023/05/06 00:34:17;;;;;;;8.03;6.70;;;;;;;12.44;89.55;94986.53;5072203;28;21000;-79
2023/05/06 00:36:43;;;;;;;9.50;7.77;;;;;;;12.45;89.41;94996.94;5072450;28;20845;-80
2023/05/06 00:39:10;;;;;;;8.20;7.40;;;;;;;12.49;90.07;95000.13;5072324;28;20442;-80
2023/05/06 00:41:37;;;;;;;7.40;6.70;;;;;;;12.45;89.03;94991.66;5072305;28;20862;-80
2023/05/06 00:44:04;;;;;;;8.37;6.63;;;;;;;12.43;89.05;94998.00;5072208;28;20449;-80
2023/05/06 00:46:31;;;;;;;7.17;6.47;;;;;;;12.43;88.00;94990.94;5076049;28;20517;-80
2023/05/06 00:48:58;;;;;;;9.70;8.53;;;;;;;12.44;88.18;94997.06;5057769;28;20441;-80
2023/05/06 00:51:27;;;;;;;9.37;7.00;;;;;;;12.43;89.11;94990.94;5076489;28;20456;-80
2023/05/06 00:53:53;;;;;;;8.33;7.50;;;;;;;12.48;88.32;94993.19;5076557;28;20472;-80
2023/05/06 00:56:20;;;;;;;9.17;7.43;;;;;;;12.50;87.57;94983.34;5076514;28;20449;-80
2023/05/06 00:58:47;;;;;;;9.60;6.93;;;;;;;12.45;88.50;94982.94;5076388;28;20491;-80
2023/05/06 01:01:14;;;;;;;8.03;7.20;;;;;;;12.42;88.08;94989.28;5076016;28;20864;-80
2023/05/06 01:03:41;;;;;;;9.17;7.13;;;;;;;12.43;88.31;94990.13;5076692;28;20861;-80
2023/05/06 01:06:13;;;;;;;8.93;7.40;;;;;;;12.32;86.62;94989.28;5075897;28;20449;-80
2023/05/06 01:08:50;;;;;;;8.50;7.20;;;;;;;12.19;85.69;94982.66;5076475;28;20441;-80
2023/05/06 01:11:24;;;;;;;7.77;6.53;;;;;;;12.07;87.81;94980.13;5075749;28;20488;-80
2023/05/06 01:13:58;;;;;;;8.13;7.33;;;;;;;12.06;87.74;94977.66;5076252;28;20503;-80
2023/05/06 01:16:28;;;;;;;7.23;6.53;;;;;;;12.02;88.46;94976.25;5076061;28;20443;-80
2023/05/06 01:18:55;;;;;;;7.47;6.77;;;;;;;12.04;88.86;94979.56;5076494;28;20520;-80
2023/05/06 01:21:23;;;;;;;7.97;6.90;;;;;;;12.08;89.48;94980.97;5075887;28;20454;-80
2023/05/06 01:23:56;;;;;;;7.20;6.40;;;;;;;12.12;88.75;94979.72;5075579;28;20445;-80
2023/05/06 01:26:23;;;;;;;10.93;6.73;;;;;;;12.15;88.86;94984.72;5075989;28;20441;-80
2023/05/06 01:28:50;;;;;;;7.87;6.90;;;;;;;12.17;88.48;94984.59;5075879;28;20449;-79
2023/05/06 01:31:23;;;;;;;12.67;7.97;;;;;;;12.19;88.54;94988.75;5075358;28;20444;-79
2023/05/06 01:33:59;;;;;;;8.90;6.70;;;;;;;12.19;87.26;94980.84;5075897;28;20453;-79
2023/05/06 01:36:32;;;;;;;8.17;6.37;;;;;;;12.19;87.91;94975.59;5075689;28;20445;-79
2023/05/06 01:39:09;;;;;;;7.90;6.87;;;;;;;12.23;88.76;94978.78;5056880;28;20499;-79
2023/05/06 01:41:40;;;;;;;7.47;6.30;;;;;;;12.22;88.20;94977.94;5057688;28;21023;-80
2023/05/06 01:44:08;;;;;;;7.00;6.40;;;;;;;12.19;89.30;94967.69;5075706;28;20532;-80
2023/05/06 01:46:35;;;;;;;9.47;7.47;;;;;;;12.20;88.16;94977.25;5056700;28;21040;-80
2023/05/06 01:49:10;;;;;;;8.50;6.43;;;;;;;12.14;88.14;94976.94;5075709;28;20445;-80
2023/05/06 01:51:37;;;;;;;7.37;6.67;;;;;;;12.07;88.23;94974.03;5075545;28;20454;-80
2023/05/06 01:54:06;;;;;;;8.53;7.40;;;;;;;12.09;86.54;94980.81;5075335;28;20451;-80
2023/05/06 01:56:32;;;;;;;9.93;6.93;;;;;;;12.12;87.17;94978.88;5075218;28;20511;-80
2023/05/06 01:58:59;;;;;;;11.00;6.93;;;;;;;12.10;87.76;94974.59;5075390;28;20833;-80
2023/05/06 02:01:26;;;;;;;7.73;6.53;;;;;;;12.04;88.09;94980.41;5075162;28;20448;-80
2023/05/06 02:03:53;;;;;;;9.27;6.97;;;;;;;12.00;88.72;94975.56;5056645;28;20448;-80
2023/05/06 02:06:20;;;;;;;10.10;8.03;;;;;;;11.93;87.68;94977.91;5075257;28;20480;-79
2023/05/06 02:08:47;;;;;;;8.73;6.43;;;;;;;11.94;87.89;94978.75;5075114;28;20467;-80
2023/05/06 02:11:15;;;;;;;9.77;7.30;;;;;;;11.96;88.14;94976.81;5074712;28;20444;-80
2023/05/06 02:13:42;;;;;;;7.93;7.13;;;;;;;11.98;88.50;94980.13;5056148;28;20488;-81
2023/05/06 02:16:09;;;;;;;7.70;6.50;;;;;;;11.90;88.16;94982.63;5075019;28;20498;-82
2023/05/06 02:18:36;;;;;;;6.47;5.77;;;;;;;11.86;89.43;94976.81;5074830;28;20454;-81
2023/05/06 02:21:03;;;;;;;8.87;6.80;;;;;;;11.85;89.74;94967.22;5075016;28;20799;-79
2023/05/06 02:23:30;;;;;;;8.80;6.70;;;;;;;11.83;89.20;94981.47;5074736;28;20869;-79
2023/05/06 02:25:57;;;;;;;7.00;6.30;;;;;;;11.83;88.85;94976.22;5074530;28;20456;-80
2023/05/06 02:28:26;;;;;;;8.83;6.77;;;;;;;11.83;88.35;94973.59;5074539;28;20437;-81
2023/05/06 02:30:55;;;;;;;6.90;6.03;;;;;;;11.87;89.47;94967.94;5074894;28;20836;-81
2023/05/06 02:33:22;;;;;;;11.20;6.07;;;;;;;11.86;88.70;94970.72;5074347;28;20577;-81
2023/05/06 02:35:49;;;;;;;11.70;7.17;;;;;;;11.89;88.96;94976.53;5074542;28;20441;-81
2023/05/06 02:38:16;;;;;;;7.20;6.00;;;;;;;11.93;88.48;94970.03;5074265;28;20498;-81
2023/05/06 02:40:43;;;;;;;7.90;7.10;;;;;;;11.92;88.51;94976.25;5074479;28;20548;-81
2023/05/06 02:43:10;;;;;;;6.97;6.00;;;;;;;11.86;87.52;94970.72;5074122;28;20965;-81
2023/05/06 02:45:38;;;;;;;8.83;6.80;;;;;;;11.83;88.71;94976.22;5073546;28;21024;-82
2023/05/06 02:48:05;;;;;;;7.70;6.70;;;;;;;11.79;88.54;94975.66;5074289;28;20436;-81
2023/05/06 02:50:32;;;;;;;6.43;5.83;;;;;;;11.78;88.65;94974.84;5073907;28;20921;-81
2023/05/06 02:52:59;;;;;;;8.00;6.10;;;;;;;11.78;88.07;94974.84;5073753;28;20484;-81
2023/05/06 02:55:25;;;;;;;8.83;6.40;;;;;;;11.79;88.07;94984.38;5055203;28;20425;-81
2023/05/06 02:57:52;;;;;;;8.73;6.40;;;;;;;11.77;87.91;94983.66;5073863;28;20526;-81
2023/05/06 03:00:19;;;;;;;7.00;6.40;;;;;;;11.79;88.21;94987.00;5073702;28;20438;-81
2023/05/06 03:02:48;;;;;;;6.87;6.17;;;;;;;11.76;87.66;94992.50;5055180;28;20939;-81
2023/05/06 03:05:14;;;;;;;8.57;6.17;;;;;;;11.75;88.30;94993.47;5073943;28;20444;-81
2023/05/06 03:07:41;;;;;;;9.03;6.00;;;;;;;11.75;86.62;94996.09;5074022;28;20449;-81
2023/05/06 03:10:08;;;;;;;7.57;6.03;;;;;;;11.72;87.16;94991.13;5074183;28;20453;-80
2023/05/06 03:12:35;;;;;;;7.23;5.90;;;;;;;11.67;88.05;94988.06;5073714;28;20487;-80
2023/05/06 03:15:02;;;;;;;7.77;6.10;;;;;;;11.73;89.18;94989.31;5055219;28;20858;-81
2023/05/06 03:17:29;;;;;;;8.87;7.40;;;;;;;11.74;89.12;94989.19;5073845;28;20448;-81
2023/05/06 03:19:57;;;;;;;8.80;6.20;;;;;;;11.76;88.29;94986.41;5074117;28;20448;-82
2023/05/06 03:22:24;;;;;;;7.03;5.70;;;;;;;11.72;87.51;94999.00;5055235;28;20853;-81
2023/05/06 03:24:50;;;;;;;8.90;6.43;;;;;;;11.74;88.26;94996.25;5073536;28;20437;-81
2023/05/06 03:27:17;;;;;;;9.07;6.20;;;;;;;11.70;87.30;95000.94;5073522;28;20889;-81
2023/05/06 03:29:44;;;;;;;7.73;6.03;;;;;;;11.70;87.63;94998.31;5073542;28;21005;-81
2023/05/06 03:32:11;;;;;;;7.97;7.03;;;;;;;11.71;86.94;95002.59;5073617;28;20452;-81
2023/05/06 03:34:37;;;;;;;10.87;6.90;;;;;;;11.62;86.94;95011.28;5073645;28;20439;-81
2023/05/06 03:37:06;;;;;;;8.73;6.60;;;;;;;11.52;88.60;95004.31;5066046;28;20457;-81
2023/05/06 03:39:33;;;;;;;8.33;7.10;;;;;;;11.55;89.96;95007.50;5053560;28;20847;-81
2023/05/06 03:42:01;;;;;;;7.47;6.10;;;;;;;11.62;93.01;95008.66;5053856;28;20449;-83
2023/05/06 03:44:27;;;;;;;8.40;6.67;;;;;;;11.97;92.76;95012.66;5053115;28;20540;-81
2023/05/06 03:46:54;;;;;;;8.50;7.07;;;;;;;12.01;90.97;95014.03;5053573;28;20476;-81
2023/05/06 03:49:21;;;;;;;7.00;5.67;;;;;;;12.06;87.74;95015.28;5052960;28;20457;-78
2023/05/06 03:51:48;;;;;;;7.00;6.30;;;;;;;12.05;86.72;95012.81;5053253;28;20450;-80
2023/05/06 03:54:16;;;;;;;8.20;6.47;;;;;;;12.00;86.78;95012.38;5052994;28;20481;-80
2023/05/06 03:56:43;;;;;;;11.18;6.30;;;;;;;11.94;86.43;95012.94;5052610;28;20451;-79
2023/05/06 03:59:09;;;;;;;11.43;6.30;;;;;;;11.95;87.31;95014.59;5052708;28;20266;-79
2023/05/06 04:01:36;;;;;;;10.13;6.63;;;;;;;11.91;87.50;95021.09;5052606;28;20499;-79
2023/05/06 04:04:03;;;;;;;15.60;7.00;;;;;;;11.88;86.81;95016.94;5052288;28;20456;-79
2023/05/06 04:06:30;;;;;;;6.90;6.00;;;;;;;11.92;87.99;95022.75;5052793;28;20442;-79
2023/05/06 04:08:56;;;;;;;6.07;5.10;;;;;;;11.94;87.47;95026.91;5052350;28;20858;-79
2023/05/06 04:11:25;;;;;;;10.30;6.17;;;;;;;11.84;86.96;95023.41;5052735;28;20446;-79
2023/05/06 04:13:51;;;;;;;8.20;6.00;;;;;;;11.84;88.16;95025.22;5052225;28;20489;-78
2023/05/06 04:16:18;;;;;;;12.40;8.20;;;;;;;11.82;86.49;95022.72;5066654;28;20437;-79
2023/05/06 04:18:46;;;;;;;12.17;7.60;;;;;;;12.76;100.00;95009.94;5034122;28;20506;-80
2023/05/06 04:21:13;;;;;;;9.30;6.77;;;;;;;13.68;96.12;95023.31;5055462;28;20490;-79
2023/05/06 04:23:40;;;;;;;6.83;6.23;;;;;;;13.89;84.75;95034.47;5056545;28;20458;-79
2023/05/06 04:26:07;;;;;;;6.63;5.80;;;;;;;13.76;81.12;95033.94;5056104;28;20496;-78
2023/05/06 04:28:35;;;;;;;9.03;6.07;;;;;;;13.57;80.13;95043.59;5037454;28;20448;-79
2023/05/06 04:31:02;;;;;;;7.50;6.43;;;;;;;13.37;80.41;95042.00;5056364;28;20508;-79
2023/05/06 04:33:29;;;;;;;7.60;6.13;;;;;;;13.23;81.06;95047.72;5055960;28;20495;-79
2023/05/06 04:35:56;;;;;;;6.83;6.20;;;;;;;13.12;82.35;95043.41;5056166;28;20439;-78
2023/05/06 04:38:25;;;;;;;14.83;6.27;;;;;;;13.15;82.44;95045.78;5055847;28;20534;-78
2023/05/06 04:40:52;;;;;;;7.50;6.30;;;;;;;13.15;82.74;95050.22;5055843;28;20473;-78
2023/05/06 04:43:19;;;;;;;14.17;6.10;;;;;;;13.17;82.40;95053.53;5055949;28;20579;-78
2023/05/06 04:45:49;;;;;;;6.80;6.20;;;;;;;13.13;82.30;95044.25;5063014;28;20479;-79
2023/05/06 04:48:17;;;;;;;6.43;5.83;;;;;;;13.05;82.39;95054.69;5073580;28;20525;-78
2023/05/06 04:50:44;;;;;;;6.73;6.03;;;;;;;12.95;83.09;95059.94;5076139;28;20454;-79
2023/05/06 04:53:11;;;;;;;6.87;6.10;;;;;;;12.95;83.64;95063.41;5040048;28;20483;-78
2023/05/06 04:55:37;;;;;;;6.40;5.80;;;;;;;13.00;83.47;95057.69;5075485;28;20457;-78
2023/05/06 04:58:04;;;;;;;7.77;6.97;;;;;;;12.98;84.26;95065.75;5075455;28;20931;-79
2023/05/06 05:00:31;;;;;;;11.40;7.47;;;;;;;12.98;84.50;95068.38;5075557;28;20452;-78
2023/05/06 05:03:00;;;;;;;9.97;6.83;;;;;;;13.07;84.83;95065.91;5076016;28;20463;-79
2023/05/06 05:05:27;;;;;;;11.73;7.20;;;;;;;13.42;85.84;95065.28;5075287;28;20524;-81
2023/05/06 05:07:54;;;;;;;8.43;6.27;;;;;;;14.12;83.44;95070.00;5075342;28;20445;-80
2023/05/06 05:10:21;;;;;;;6.00;5.33;;;;;;;14.88;80.72;95081.06;5075146;28;20452;-80
2023/05/06 05:12:48;;;;;;;12.73;6.07;;;;;;;15.41;76.22;95077.53;5075164;28;20931;-80
2023/05/06 05:15:15;;;;;;;7.10;6.37;;;;;;;15.69;74.69;95085.34;5075159;28;20444;-80
2023/05/06 05:17:41;;;;;;;6.87;6.30;;;;;;;15.81;74.13;95081.41;5075773;28;20446;-80
2023/05/06 05:20:10;;;;;;;6.80;6.10;;;;;;;15.79;73.62;95086.03;5072823;28;20934;-80
2023/05/06 05:22:37;;;;;;;10.70;6.87;;;;;;;15.60;74.76;95084.44;5074935;28;20613;-80
2023/05/06 05:25:05;;;;;;;10.83;7.10;;;;;;;15.43;75.26;95085.31;5074789;28;20449;-80
2023/05/06 05:27:32;;;;;;;7.77;6.53;;;;;;;15.35;76.95;95093.19;5074820;28;20498;-80
2023/05/06 05:29:58;;;;;;;7.33;6.60;;;;;;;15.22;77.55;95090.91;5075030;28;20525;-80
2023/05/06 05:32:25;;;;;;;11.53;6.93;;;;;;;15.12;77.56;95087.53;5072230;28;20523;-80
2023/05/06 05:34:52;;;;;;;8.80;7.37;;;;;;;14.99;78.18;95090.56;5074589;28;20960;-79
2023/05/06 05:37:20;;;;;;;10.97;6.37;;;;;;;14.88;78.03;95080.22;5039566;28;20459;-80
2023/05/06 05:39:47;;;;;;;13.37;6.63;;;;;;;14.78;78.55;95076.84;5074984;28;20535;-80
2023/05/06 05:42:14;;;;;;;8.87;6.10;;;;;;;14.70;78.57;95076.75;5074628;28;20499;-80
2023/05/06 05:44:40;;;;;;;13.40;7.07;;;;;;;14.59;78.76;95075.16;5074979;28;20448;-80
2023/05/06 05:47:07;;;;;;;6.00;5.47;;;;;;;14.47;79.68;95073.75;5074845;28;20510;-80
2023/05/06 05:49:34;;;;;;;11.30;10.20;;;;;;;15.46;100.00;95071.75;5074846;28;20997;-81
2023/05/06 05:52:01;;;;;;;13.53;7.60;;;;;;;15.50;100.00;95073.09;5074942;28;20445;-80
2023/05/06 05:54:29;;;;;;;14.50;8.80;;;;;;;15.47;89.92;95076.91;5074148;28;20556;-80
2023/05/06 05:56:56;;;;;;;11.47;7.60;;;;;;;15.50;88.62;95087.16;5074479;28;20454;-79
2023/05/06 05:59:23;;;;;;;24.27;10.30;;;;;;;15.53;85.18;95090.47;5074446;28;20450;-80
2023/05/06 06:01:50;;;;;;;15.57;9.50;;;;;;;15.47;85.28;95090.13;5074407;28;20503;-80
2023/05/06 06:04:17;;;;;;;14.27;9.30;;;;;;;15.48;81.16;95098.88;5039708;28;20494;-80
2023/05/06 06:06:43;;;;;;;13.53;10.43;;;;;;;15.54;85.45;95092.13;5074853;28;21179;-81
2023/05/06 06:09:10;;;;;;;10.37;9.40;;;;;;;15.59;82.96;95101.28;5074742;28;20505;-80
2023/05/06 06:11:39;;;;;;;13.60;9.27;;;;;;;15.67;87.11;95097.88;5039683;28;20513;-80
2023/05/06 06:14:05;;;;;;;10.40;8.80;;;;;;;15.68;82.95;95099.56;5074632;28;20489;-80
2023/05/06 06:16:32;;;;;;;7.70;6.90;;;;;;;15.57;81.24;95099.75;5074450;28;20903;-80
2023/05/06 06:18:59;;;;;;;13.53;10.10;;;;;;;15.59;83.23;95096.00;5074508;28;20858;-80
2023/05/06 06:21:26;;;;;;;11.73;8.23;;;;;;;15.68;89.12;95095.09;5074591;28;20421;-80
2023/05/06 06:23:53;;;;;;;14.80;9.13;;;;;;;15.79;91.73;95084.22;5074926;28;20480;-80
2023/05/06 06:26:20;;;;;;;12.37;9.33;;;;;;;15.89;89.54;95097.34;5074711;28;20514;-81
2023/05/06 06:28:48;;;;;;;12.97;9.60;;;;;;;15.79;84.55;95101.91;5074958;28;20435;-80
2023/05/06 06:31:15;;;;;;;12.73;10.47;;;;;;;15.92;92.87;95086.47;5073870;28;20442;-81
2023/05/06 06:33:41;;;;;;;12.43;11.13;;;;;;;16.08;95.35;95085.69;5073575;28;20488;-79
2023/05/06 06:36:09;;;;;;;17.17;11.63;;;;;;;16.40;100.00;95085.81;5072236;28;20502;-80
2023/05/06 06:38:36;;;;;;;20.10;11.00;;;;;;;16.63;92.30;95083.41;5072495;28;20463;-81
2023/05/06 06:41:03;;;;;;;14.13;11.57;;;;;;;17.05;100.00;95079.84;5073825;28;20831;-82
2023/05/06 06:43:29;;;;;;;11.70;10.60;;;;;;;17.89;100.00;95079.44;5060301;28;20784;-82
2023/05/06 06:45:58;;;;;;;11.90;10.10;;;;;;;18.60;90.21;95098.13;5073715;28;20568;-81
2023/05/06 06:48:24;;;;;;;17.53;8.93;;;;;;;19.22;83.96;95108.72;5067435;28;20457;-83
2023/05/06 06:50:51;;;;;;;9.80;8.37;;;;;;;19.71;83.43;95099.38;5073617;28;20444;-82
2023/05/06 06:53:18;;;;;;;8.77;7.53;;;;;;;20.03;80.03;95108.03;5073603;28;20479;-81
2023/05/06 06:55:45;;;;;;;8.77;7.80;;;;;;;19.67;66.35;95118.56;5069515;28;20503;-81
2023/05/06 06:58:12;;;;;;;16.83;9.77;;;;;;;19.31;68.08;95107.66;5074026;28;20509;-81
2023/05/06 07:00:38;;;;;;;11.87;8.70;;;;;;;18.95;75.79;95100.28;5073710;28;20454;-80
2023/05/06 07:03:07;;;;;;;13.17;9.97;;;;;;;18.54;71.65;95105.78;5071832;28;20468;-81
2023/05/06 07:05:33;;;;;;;19.37;11.03;;;;;;;18.21;71.36;95105.09;5072803;28;20451;-81
2023/05/06 07:08:00;;;;;;;17.83;11.07;;;;;;;17.92;70.13;95105.66;5067893;28;20453;-81
2023/05/06 07:10:27;;;;;;;14.13;11.10;;;;;;;17.86;83.86;95098.38;5068440;28;20534;-82
2023/05/06 07:12:53;;;;;;;13.83;11.10;;;;;;;17.76;77.53;95111.03;5073182;28;20844;-81
2023/05/06 07:15:20;;;;;;;16.10;11.30;;;;;;;17.71;78.68;95108.03;5075789;28;20482;-81
2023/05/06 07:17:47;;;;;;;13.33;10.73;;;;;;;17.77;83.78;95096.75;5072360;28;20472;-81
2023/05/06 07:20:16;;;;;;;15.00;10.63;;;;;;;17.69;74.29;95109.22;5039311;28;20448;-81
2023/05/06 07:22:44;;;;;;;12.10;10.07;;;;;;;17.50;73.54;95097.91;5071961;28;21002;-81
2023/05/06 07:25:11;;;;;;;11.97;9.80;;;;;;;17.45;75.71;95108.19;5073232;28;20487;-81
2023/05/06 07:27:38;;;;;;;15.03;9.90;;;;;;;17.47;75.28;95116.00;5074324;28;20507;-81
2023/05/06 07:30:05;;;;;;;13.33;9.77;;;;;;;17.52;76.21;95105.69;5074604;28;20445;-81
2023/05/06 07:32:32;;;;;;;9.33;8.03;;;;;;;17.62;77.45;95109.00;5075037;28;20454;-81
2023/05/06 07:34:59;;;;;;;11.13;8.20;;;;;;;17.70;80.23;95110.88;5038490;28;20536;-80
2023/05/06 07:37:27;;;;;;;15.03;9.30;;;;;;;17.75;76.25;95108.53;5073374;28;20504;-80
2023/05/06 07:39:54;;;;;;;11.60;8.47;;;;;;;17.70;72.42;95109.03;5071321;28;20438;-81
2023/05/06 07:42:20;;;;;;;8.47;7.67;;;;;;;17.81;72.41;95108.69;5073145;28;20869;-80
2023/05/06 07:44:47;;;;;;;9.40;8.17;;;;;;;17.92;72.86;95105.66;5073159;28;20497;-81
2023/05/06 07:47:25;;;;;;;10.17;8.40;;;;;;;17.95;71.02;95109.81;5037913;28;20526;-81
2023/05/06 07:49:52;;;;;;;9.13;8.03;;;;;;;17.83;74.38;95105.84;5072890;28;20441;-81
2023/05/06 07:52:19;;;;;;;8.67;7.77;;;;;;;17.90;71.90;95097.03;5073092;28;20519;-81
2023/05/06 07:54:47;;;;;;;17.63;9.67;;;;;;;17.82;69.04;95110.34;5075007;28;20529;-80
2023/05/06 07:57:14;;;;;;;11.10;8.67;;;;;;;17.72;70.14;95109.69;5076326;28;20444;-81
2023/05/06 07:59:42;;;;;;;11.10;9.30;;;;;;;17.89;70.64;95097.22;5076729;28;20442;-81
2023/05/06 08:02:09;;;;;;;11.43;8.27;;;;;;;18.11;70.96;95099.13;5076620;28;20458;-80
2023/05/06 08:04:36;;;;;;;9.77;8.00;;;;;;;18.34;70.00;95104.53;5076838;28;20449;-81
2023/05/06 08:07:02;;;;;;;9.63;8.47;;;;;;;18.45;68.99;95103.31;5076979;28;20450;-81
2023/05/06 08:09:29;;;;;;;9.43;8.20;;;;;;;18.84;69.37;95103.34;5077119;28;20578;-81
2023/05/06 08:11:58;;;;;;;11.33;7.60;;;;;;;19.26;65.70;95105.53;5076688;28;20500;-81
2023/05/06 08:14:25;;;;;;;9.60;7.50;;;;;;;19.38;65.94;95103.31;5074905;28;20488;-81
2023/05/06 08:16:51;;;;;;;8.70;7.80;;;;;;;19.33;64.91;95105.66;5076619;28;20444;-81
2023/05/06 08:19:18;;;;;;;9.50;7.90;;;;;;;19.03;66.01;95097.53;5077083;28;20525;-81
2023/05/06 08:21:45;;;;;;;8.53;7.43;;;;;;;19.28;65.54;95105.34;5076887;28;20861;-82
2023/05/06 08:24:12;;;;;;;11.47;8.13;;;;;;;19.63;64.51;95099.44;5074403;28;20434;-81
2023/05/06 08:26:39;;;;;;;10.13;8.43;;;;;;;19.71;63.99;95094.03;5076829;28;20478;-82
2023/05/06 08:29:08;;;;;;;8.47;7.37;;;;;;;19.75;64.66;95103.31;5075842;28;20445;-81
2023/05/06 08:31:34;;;;;;;11.03;8.73;;;;;;;19.64;64.54;95103.75;5075832;28;20445;-80
2023/05/06 08:34:01;;;;;;;11.57;9.10;;;;;;;19.51;62.61;95100.84;5075409;28;20495;-81
2023/05/06 08:36:28;;;;;;;10.80;7.90;;;;;;;19.60;65.05;95091.81;5075637;28;20444;-81
2023/05/06 08:38:54;;;;;;;9.20;8.10;;;;;;;19.67;62.28;95092.75;5075760;28;20440;-80
2023/05/06 08:41:22;;;;;;;16.00;8.60;;;;;;;19.85;63.46;95100.38;5076477;28;20431;-81
2023/05/06 08:43:50;;;;;;;11.00;8.17;;;;;;;20.04;62.03;95096.38;5076354;28;20990;-81
2023/05/06 08:46:18;;;;;;;13.00;8.17;;;;;;;20.01;62.08;95102.91;5076278;28;20946;-82
2023/05/06 08:48:45;;;;;;;12.87;9.07;;;;;;;19.85;62.52;95100.38;5076333;28;20486;-81
2023/05/06 08:51:14;;;;;;;9.47;8.53;;;;;;;19.69;63.72;95105.88;5074130;28;20934;-81
2023/05/06 08:53:46;;;;;;;18.63;10.23;;;;;;;19.49;63.24;95098.38;5076172;28;20455;-81
2023/05/06 08:56:13;;;;;;;10.70;8.37;;;;;;;19.27;64.64;95098.38;5075826;28;20448;-81
2023/05/06 08:58:44;;;;;;;11.07;8.70;;;;;;;19.17;64.64;95096.78;5076480;28;20451;-81
2023/05/06 09:01:11;;;;;;;9.57;8.00;;;;;;;19.12;64.29;95093.03;5040745;28;20444;-81
2023/05/06 09:03:39;;;;;;;13.57;9.27;;;;;;;19.11;64.86;95092.19;5073715;28;20437;-81
2023/05/06 09:06:06;;;;;;;16.23;10.10;;;;;;;19.06;64.28;95093.69;5075067;28;20493;-82
2023/05/06 09:08:33;;;;;;;14.97;9.10;;;;;;;19.05;65.98;95084.91;5075974;28;20517;-81
2023/05/06 09:10:59;;;;;;;11.40;9.07;;;;;;;19.06;66.09;95081.22;5075851;28;20443;-81
2023/05/06 09:13:26;;;;;;;14.07;8.40;;;;;;;18.99;66.64;95087.44;5076060;28;20502;-81
2023/05/06 09:15:54;;;;;;;12.70;9.07;;;;;;;18.87;66.27;95084.38;5040322;28;21013;-81
2023/05/06 09:18:21;;;;;;;10.40;7.80;;;;;;;18.86;66.18;95075.56;5075663;28;20440;-81
2023/05/06 09:20:49;;;;;;;9.37;8.40;;;;;;;18.91;67.44;95077.69;5075712;28;20505;-83
2023/05/06 09:23:17;;;;;;;15.60;9.10;;;;;;;18.96;68.01;95069.19;5075398;28;20562;-81
2023/05/06 09:25:46;;;;;;;13.03;7.90;;;;;;;19.05;67.78;95074.25;5075683;28;20458;-82
2023/05/06 09:28:14;;;;;;;12.77;9.70;;;;;;;19.27;77.51;95063.78;5075422;28;20432;-81
2023/05/06 09:30:42;;;;;;;11.40;8.70;;;;;;;19.96;76.31;95075.16;5075400;28;20922;-81
2023/05/06 09:33:09;;;;;;;8.60;7.80;;;;;;;20.34;63.63;95066.03;5075411;28;20577;-82
2023/05/06 09:35:37;;;;;;;8.47;7.63;;;;;;;20.55;65.63;95061.81;5075048;28;20485;-81
2023/05/06 09:38:06;;;;;;;12.50;8.70;;;;;;;20.66;62.81;95062.16;5075415;28;20442;-82
2023/05/06 09:40:33;;;;;;;9.43;7.37;;;;;;;20.59;61.38;95060.44;5075341;28;20449;-82
2023/05/06 09:43:00;;;;;;;8.07;7.00;;;;;;;20.20;62.72;95061.53;5074974;28;21203;-81
2023/05/06 09:45:28;;;;;;;7.20;6.53;;;;;;;20.09;61.23;95054.03;5075019;28;20537;-81
2023/05/06 09:47:55;;;;;;;7.20;6.33;;;;;;;19.95;62.22;95054.84;5075717;28;20433;-81
2023/05/06 09:50:23;;;;;;;10.57;7.83;;;;;;;19.94;63.06;95050.53;5074674;28;20442;-81
2023/05/06 09:52:50;;;;;;;6.90;6.30;;;;;;;20.05;64.63;95050.91;5074887;28;20457;-81
2023/05/06 09:55:20;;;;;;;10.60;8.83;;;;;;;20.13;63.60;95051.81;5075024;28;20473;-81
2023/05/06 09:57:48;;;;;;;8.93;8.00;;;;;;;20.21;69.92;95044.53;5075138;28;20466;-86
2023/05/06 10:00:16;;;;;;;7.80;7.00;;;;;;;20.20;64.70;95040.22;5074579;28;20446;-81
2023/05/06 10:02:46;;;;;;;7.80;6.67;;;;;;;20.26;64.56;95039.50;5072665;28;20445;-82
2023/05/06 10:05:13;;;;;;;10.37;7.87;;;;;;;20.26;63.04;95050.16;5074865;28;20913;-81
2023/05/06 10:07:41;;;;;;;12.33;7.63;;;;;;;20.22;61.93;95053.34;5074897;28;20848;-82
2023/05/06 10:10:09;;;;;;;9.60;6.43;;;;;;;19.84;59.82;95041.97;5074771;28;20465;-81
2023/05/06 10:12:38;;;;;;;9.43;6.40;;;;;;;19.67;60.61;95042.16;5074767;28;20521;-81
2023/05/06 10:15:06;;;;;;;9.43;6.47;;;;;;;19.29;62.95;95051.13;5074445;28;20884;-81
2023/05/06 10:17:34;;;;;;;8.37;6.70;;;;;;;19.04;64.92;95042.50;5073423;28;20429;-81
2023/05/06 10:20:03;;;;;;;7.07;6.30;;;;;;;19.05;61.08;95045.00;5074666;28;20473;-81
2023/05/06 10:22:38;;;;;;;7.53;5.30;;;;;;;19.18;62.25;95039.91;5074180;28;20508;-81
2023/05/06 10:25:15;;;;;;;6.23;5.67;;;;;;;19.19;57.75;95046.91;5074015;28;20481;-82
2023/05/06 10:27:45;;;;;;;6.17;5.53;;;;;;;18.96;58.48;95038.09;5040569;28;20506;-81
2023/05/06 10:30:15;;;;;;;7.73;5.30;;;;;;;18.92;60.14;95036.81;5073686;28;20441;-81
2023/05/06 10:32:44;;;;;;;6.90;4.53;;;;;;;19.08;60.12;95050.00;5073430;28;20532;-81
2023/05/06 10:35:20;;;;;;;13.60;4.97;;;;;;;18.96;60.41;95043.41;5037861;28;21002;-80
2023/05/06 10:37:49;;;;;;;4.60;4.30;;;;;;;19.02;59.36;95044.53;5073113;28;20883;-79
2023/05/06 10:40:16;;;;;;;5.00;4.50;;;;;;;19.17;59.58;95038.25;5073481;28;21174;-79
2023/05/06 10:42:44;;;;;;;5.57;4.63;;;;;;;19.14;58.40;95037.81;5073457;28;20506;-79
2023/05/06 10:45:14;;;;;;;12.60;6.80;;;;;;;19.23;59.65;95035.88;5073151;28;20437;-79
2023/05/06 10:48:09;;;;;;;6.07;4.60;;;;;;;19.40;58.47;95032.09;5073541;28;20476;-80
2023/05/06 10:50:35;;;;;;;4.60;4.20;;;;;;;19.42;57.24;95032.72;5073850;28;20522;-80
2023/05/06 10:53:02;;;;;;;6.20;5.70;;;;;;;19.59;58.60;95028.09;5073801;28;20916;-80
2023/05/06 10:55:30;;;;;;;8.67;4.60;;;;;;;20.13;58.58;95035.81;5073406;28;20489;-79
2023/05/06 10:58:03;;;;;;;4.53;4.13;;;;;;;20.43;55.61;95024.13;5073332;28;20515;-79
2023/05/06 11:00:34;;;;;;;8.43;4.20;;;;;;;20.48;55.15;95034.25;5073487;28;20499;-80
2023/05/06 11:03:03;;;;;;;5.10;4.33;;;;;;;20.45;56.32;95021.28;5073886;28;20482;-83
2023/05/06 11:05:30;;;;;;;5.40;4.10;;;;;;;20.19;54.45;95030.56;5073774;28;20530;-83
2023/05/06 11:08:10;;;;;;;5.20;4.70;;;;;;;20.22;56.54;95016.88;5073817;28;20429;-81
2023/05/06 11:10:37;;;;;;;7.50;4.90;;;;;;;20.13;56.42;95019.84;5073638;28;20849;-83
2023/05/06 11:13:23;;;;;;;4.23;3.93;;;;;;;19.86;53.77;95021.31;5073449;28;20456;-81
2023/05/06 11:15:50;;;;;;;5.73;4.53;;;;;;;19.69;55.22;95023.34;5073542;28;20488;-80
2023/05/06 11:18:42;;;;;;;40.20;20.67;;;;;;;19.61;55.22;95028.75;5073689;28;20432;-81
2023/05/06 11:21:40;;;;;;;7.60;5.50;;;;;;;19.63;56.31;95032.88;5073283;28;20997;-81
2023/05/06 11:24:08;;;;;;;5.13;4.00;;;;;;;19.61;56.35;95028.75;5073689;28;20452;-81
2023/05/06 11:26:36;;;;;;;12.33;4.80;;;;;;;19.59;55.95;95023.59;5073601;28;20499;-81
2023/05/06 11:29:04;;;;;;;7.40;4.97;;;;;;;19.58;55.04;95021.94;5073939;28;20572;-80
2023/05/06 11:31:39;;;;;;;4.50;4.10;;;;;;;19.66;56.17;95015.69;5073667;28;20471;-81
2023/05/06 11:34:08;;;;;;;4.70;4.30;;;;;;;19.56;55.33;95020.47;5055052;28;20840;-81